createdAt,value
2022-08-16T00:03:37.784Z,22.90
2022-08-16T00:08:39.546Z,22.74
2022-08-16T00:13:41.746Z,22.82
2022-08-16T00:18:43.784Z,22.73
2022-08-16T00:23:46.229Z,22.72
2022-08-16T00:28:47.922Z,22.75
2022-08-16T00:33:55.998Z,22.70
2022-08-16T00:38:57.679Z,22.62
2022-08-16T00:44:03.526Z,22.68
2022-08-16T00:49:17.689Z,22.67
2022-08-16T00:54:22.489Z,22.66
2022-08-16T00:59:28.800Z,22.67
2022-08-16T01:04:31.042Z,22.58
2022-08-16T01:09:37.382Z,22.59
2022-08-16T01:14:50.899Z,22.49
2022-08-16T01:19:59.090Z,22.51
2022-08-16T01:25:14.369Z,22.42
2022-08-16T01:30:19.379Z,22.41
2022-08-16T01:35:35.047Z,22.38
2022-08-16T01:40:37.557Z,22.37
2022-08-16T01:45:41.475Z,22.26
2022-08-16T01:51:09.032Z,22.32
2022-08-16T01:56:06.418Z,22.24
2022-08-16T02:01:08.571Z,22.19
2022-08-16T02:06:10.333Z,22.25
2022-08-16T02:11:13.448Z,22.24
2022-08-16T02:16:18.364Z,22.18
2022-08-16T02:21:31.574Z,22.15
2022-08-16T02:26:34.333Z,22.08
2022-08-16T02:32:03.949Z,22.05
2022-08-16T02:36:58.558Z,21.96
2022-08-16T02:42:00.326Z,21.82
2022-08-16T02:47:02.486Z,21.87
2022-08-16T02:52:04.373Z,21.69
2022-08-16T02:57:11.245Z,21.48
2022-08-16T03:02:13.351Z,21.53
2022-08-16T03:07:27.295Z,21.41
2022-08-16T03:12:30.382Z,21.36
2022-08-16T03:17:53.262Z,21.33
2022-08-16T03:22:56.503Z,21.02
2022-08-16T03:32:59.627Z,21.13
2022-08-16T03:38:34.372Z,20.94
2022-08-16T03:43:50.687Z,20.94
2022-08-16T03:48:50.107Z,20.93
2022-08-16T03:53:57.692Z,20.89
2022-08-16T03:59:03.048Z,20.77
2022-08-16T04:04:04.602Z,20.70
2022-08-16T04:09:06.190Z,20.53
2022-08-16T04:14:32.813Z,20.70
2022-08-16T04:19:35.422Z,20.73
2022-08-16T04:24:37.649Z,20.69
2022-08-16T04:29:44.221Z,20.61
2022-08-16T04:34:48.082Z,20.59
2022-08-16T04:39:57.189Z,20.58
2022-08-16T04:44:58.897Z,20.57
2022-08-16T04:50:10.413Z,20.60
2022-08-16T04:55:22.811Z,20.52
2022-08-16T05:00:39.176Z,20.56
2022-08-16T05:05:55.381Z,20.54
2022-08-16T05:11:05.753Z,20.54
2022-08-16T05:16:11.670Z,20.64
2022-08-16T05:21:13.618Z,20.51
2022-08-16T05:26:20.354Z,20.62
2022-08-16T05:31:21.956Z,20.69
2022-08-16T05:36:24.835Z,20.60
2022-08-16T05:41:45.667Z,20.79
2022-08-16T05:46:47.517Z,20.87
2022-08-16T05:51:48.991Z,20.93
2022-08-16T05:56:50.426Z,21.03
2022-08-16T06:01:52.237Z,21.00
2022-08-16T06:06:56.566Z,21.11
2022-08-16T06:12:00.600Z,21.25
2022-08-16T06:17:05.550Z,21.44
2022-08-16T06:22:07.123Z,21.65
2022-08-16T06:27:10.777Z,21.65
2022-08-16T06:32:13.396Z,21.85
2022-08-16T06:37:37.624Z,21.87
2022-08-16T06:42:47.591Z,22.16
2022-08-16T06:47:53.245Z,22.37
2022-08-16T06:53:00.449Z,22.59
2022-08-16T06:58:22.157Z,22.94
2022-08-16T07:03:27.721Z,23.05
2022-08-16T07:08:30.153Z,23.40
2022-08-16T07:19:01.454Z,23.84
2022-08-16T07:24:07.426Z,24.00
2022-08-16T07:29:10.359Z,24.18
2022-08-16T07:34:11.799Z,24.40
2022-08-16T07:39:14.049Z,24.64
2022-08-16T07:44:16.892Z,24.81
2022-08-16T07:49:18.978Z,25.02
2022-08-16T07:54:37.727Z,25.16
2022-08-16T07:59:42.841Z,25.31
2022-08-16T08:04:49.056Z,25.53
2022-08-16T08:09:51.935Z,25.71
2022-08-16T08:14:54.394Z,25.79
2022-08-16T08:19:55.824Z,25.94
2022-08-16T08:24:58.909Z,26.11
2022-08-16T08:30:50.113Z,26.21
2022-08-16T08:35:24.444Z,26.32
2022-08-16T08:40:30.576Z,26.47
2022-08-16T08:45:49.310Z,26.54
2022-08-16T08:50:53.687Z,26.67
2022-08-16T08:55:58.732Z,26.91
2022-08-16T09:01:01.646Z,26.98
2022-08-16T09:06:05.970Z,27.10
2022-08-16T09:11:08.522Z,27.24
2022-08-16T09:16:14.768Z,27.28
2022-08-16T09:21:37.420Z,27.44
2022-08-16T09:26:45.954Z,27.53
2022-08-16T09:31:53.598Z,27.71
2022-08-16T09:36:57.979Z,27.72
2022-08-16T09:42:02.909Z,27.83
2022-08-16T09:47:10.293Z,27.60
2022-08-16T09:52:12.076Z,27.71
2022-08-16T09:57:13.691Z,27.81
2022-08-16T10:02:26.197Z,27.79
2022-08-16T10:07:44.032Z,27.92
2022-08-16T10:13:05.384Z,27.90
2022-08-16T10:18:40.960Z,27.96
2022-08-16T10:23:30.786Z,28.00
2022-08-16T10:28:39.937Z,28.01
2022-08-16T10:33:44.305Z,28.13
2022-08-16T10:38:45.870Z,28.15
2022-08-16T10:43:47.735Z,28.23
2022-08-16T10:48:52.400Z,28.31
2022-08-16T10:53:54.027Z,28.33
2022-08-16T10:59:29.574Z,28.42
2022-08-16T11:09:43.831Z,28.39
2022-08-16T11:30:57.625Z,28.50
2022-08-16T11:41:21.139Z,28.71
2022-08-16T11:46:45.142Z,28.73
2022-08-16T11:51:45.322Z,28.79
2022-08-16T11:56:53.069Z,28.86
2022-08-16T12:02:04.155Z,28.86
2022-08-16T12:07:21.328Z,28.94
2022-08-16T12:12:28.539Z,29.02
2022-08-16T12:17:32.077Z,28.98
2022-08-16T12:22:36.569Z,28.83
2022-08-16T12:27:39.457Z,29.03
2022-08-16T12:32:42.178Z,29.17
2022-08-16T12:37:46.249Z,29.22
2022-08-16T12:42:52.968Z,29.38
2022-08-16T12:48:34.554Z,29.59
2022-08-16T12:53:36.056Z,29.41
2022-08-16T12:58:49.769Z,29.47
2022-08-16T13:04:11.447Z,29.33
2022-08-16T13:09:26.770Z,29.33
2022-08-16T13:14:35.393Z,29.29
2022-08-16T13:20:05.935Z,29.28
2022-08-16T13:24:58.432Z,29.33
2022-08-16T13:29:59.887Z,29.45
2022-08-16T13:35:01.658Z,29.44
2022-08-16T13:40:04.666Z,29.58
2022-08-16T13:45:08.979Z,29.50
2022-08-16T13:50:17.318Z,29.49
2022-08-16T13:55:33.030Z,29.42
2022-08-16T14:00:34.502Z,29.46
2022-08-16T14:05:36.491Z,29.50
2022-08-16T14:10:37.998Z,29.65
2022-08-16T14:15:41.928Z,29.49
2022-08-16T14:20:48.282Z,29.52
2022-08-16T14:25:53.809Z,29.55
2022-08-16T14:30:56.603Z,29.53
2022-08-16T14:35:58.930Z,29.44
2022-08-16T14:41:00.810Z,29.46
2022-08-16T14:46:04.634Z,29.34
2022-08-16T14:51:09.042Z,29.49
2022-08-16T14:56:17.554Z,29.57
2022-08-16T15:01:59.341Z,29.65
2022-08-16T15:06:53.243Z,29.63
2022-08-16T15:11:56.941Z,29.59
2022-08-16T15:16:59.099Z,29.61
2022-08-16T15:22:01.455Z,29.75
2022-08-16T15:27:06.111Z,29.54
2022-08-16T15:32:12.095Z,29.61
2022-08-16T15:37:42.682Z,29.83
2022-08-16T15:42:54.015Z,29.92
2022-08-16T15:47:56.746Z,29.81
2022-08-16T15:53:01.012Z,29.84
2022-08-16T15:58:35.011Z,29.84
2022-08-16T16:03:27.059Z,29.76
2022-08-16T16:08:30.174Z,29.88
2022-08-16T16:13:33.265Z,29.82
2022-08-16T16:18:35.747Z,29.78
2022-08-16T16:23:53.785Z,29.72
2022-08-16T16:29:08.604Z,29.67
2022-08-16T16:34:16.655Z,29.58
2022-08-16T16:39:18.242Z,29.63
2022-08-16T16:44:31.765Z,29.48
2022-08-16T16:49:35.422Z,29.56
2022-08-16T16:54:43.140Z,29.60
2022-08-16T16:59:48.657Z,29.49
2022-08-16T17:04:57.079Z,29.55
2022-08-16T17:09:59.234Z,29.47
2022-08-16T17:15:02.847Z,29.43
2022-08-16T17:20:12.673Z,29.32
2022-08-16T17:25:14.818Z,29.31
2022-08-16T17:30:21.904Z,29.27
2022-08-16T17:35:37.922Z,29.33
2022-08-16T17:40:48.696Z,29.34
2022-08-16T17:45:57.921Z,29.19
2022-08-16T17:50:59.822Z,29.13
2022-08-16T17:56:01.652Z,29.19
2022-08-16T18:01:03.349Z,29.15
2022-08-16T18:06:07.494Z,29.02
2022-08-16T18:11:09.157Z,28.95
2022-08-16T18:16:11.780Z,28.85
2022-08-16T18:21:33.252Z,28.76
2022-08-16T18:26:34.909Z,28.65
2022-08-16T18:31:36.972Z,28.59
2022-08-16T18:36:38.424Z,28.51
2022-08-16T18:41:40.110Z,28.33
2022-08-16T18:46:43.603Z,28.30
2022-08-16T18:51:45.668Z,28.15
2022-08-16T18:56:55.385Z,27.98
2022-08-16T19:02:04.833Z,27.93
2022-08-16T19:07:07.097Z,27.79
2022-08-16T19:12:08.916Z,27.66
2022-08-16T19:17:11.191Z,27.58
2022-08-16T19:22:12.625Z,27.50
2022-08-16T19:27:14.339Z,27.35
2022-08-16T19:32:24.327Z,27.22
2022-08-16T19:37:26.659Z,27.06
2022-08-16T19:42:29.387Z,27.04
2022-08-16T19:47:31.634Z,26.91
2022-08-16T19:52:34.001Z,26.75
2022-08-16T19:57:35.685Z,26.56
2022-08-16T20:02:45.387Z,26.42
2022-08-16T20:07:46.907Z,26.28
2022-08-16T20:13:02.286Z,26.16
2022-08-16T20:18:04.538Z,26.11
2022-08-16T20:23:25.178Z,26.00
2022-08-16T20:28:40.106Z,25.84
2022-08-16T20:33:48.702Z,25.73
2022-08-16T20:38:51.659Z,25.68
2022-08-16T20:43:54.960Z,25.55
2022-08-16T20:48:56.610Z,25.45
2022-08-16T20:53:58.086Z,25.41
2022-08-16T20:59:00.384Z,25.52
2022-08-16T21:04:01.920Z,25.48
2022-08-16T21:09:04.649Z,25.49
2022-08-16T21:14:11.605Z,25.51
2022-08-16T21:19:13.159Z,25.55
2022-08-16T21:24:15.441Z,25.53
2022-08-16T21:29:17.154Z,25.47
2022-08-16T21:34:18.637Z,25.52
2022-08-16T21:39:20.071Z,25.62
2022-08-16T21:44:21.465Z,25.54
2022-08-16T21:49:22.887Z,25.55
2022-08-16T21:54:24.320Z,25.57
2022-08-16T21:59:25.826Z,25.40
2022-08-16T22:04:38.276Z,25.45
2022-08-16T22:09:40.123Z,25.48
2022-08-16T22:14:41.617Z,25.45
2022-08-16T22:19:43.577Z,25.41
2022-08-16T22:24:45.091Z,25.26
2022-08-16T22:29:46.539Z,25.32
2022-08-16T22:34:48.635Z,25.27
2022-08-16T22:39:50.150Z,25.28
2022-08-16T22:44:52.432Z,25.23
2022-08-16T22:49:53.838Z,25.32
2022-08-16T22:54:55.289Z,25.23
2022-08-16T22:59:56.688Z,25.14
2022-08-16T23:04:58.233Z,25.02
2022-08-16T23:10:01.398Z,25.09
2022-08-16T23:15:04.559Z,25.05
2022-08-16T23:20:06.983Z,25.06
2022-08-16T23:25:13.659Z,24.96
2022-08-16T23:30:16.314Z,24.97
2022-08-16T23:35:20.547Z,24.91
2022-08-16T23:40:22.789Z,24.82
2022-08-16T23:45:33.459Z,24.72
2022-08-16T23:50:37.671Z,24.46
2022-08-16T23:55:41.072Z,24.53
